Time;durP1;ratioP1;P1;durP2;ratioP2;P2;SDS_P1;SDS_P2;PMS_P1;PMS_P2;Temp;Humidity;BMP_temperature;BMP_pressure;BME280_temperature;BME280_humidity;BME280_pressure;Samples;Min_cycle;Max_cycle;Signal;HPM_P1;HPM_P2
2023/03/24 00:01:56;;;;;;;10.73;7.45;;;;;;;13.38;84.04;99009.56;6149012;23;20032;-83
2023/03/24 00:04:26;;;;;;;12.75;6.97;;;;;;;13.42;83.84;99010.03;6100957;23;20019;-84
2023/03/24 00:06:53;;;;;;;13.85;6.93;;;;;;;13.38;84.27;99001.56;6150740;23;20603;-83
2023/03/24 00:09:20;;;;;;;16.90;7.35;;;;;;;13.38;84.37;98998.91;6125891;23;20031;-84
2023/03/24 00:11:47;;;;;;;12.95;7.53;;;;;;;13.42;84.16;99004.69;6149558;23;20049;-84
2023/03/24 00:14:14;;;;;;;14.40;7.50;;;;;;;13.38;84.27;98995.38;6150847;23;20341;-84
2023/03/24 00:16:41;;;;;;;19.20;7.72;;;;;;;13.38;84.62;98993.56;6149893;23;20694;-84
2023/03/24 00:19:09;;;;;;;30.55;9.57;;;;;;;13.42;83.98;99007.38;6125437;23;20021;-85
2023/03/24 00:21:36;;;;;;;28.33;8.82;;;;;;;13.44;83.58;99003.53;6150249;23;20028;-84
2023/03/24 00:24:06;;;;;;;34.83;10.00;;;;;;;13.41;84.02;99003.06;6125652;23;20082;-84
2023/03/24 00:26:36;;;;;;;28.20;9.27;;;;;;;13.41;84.24;98995.06;6125791;23;20045;-83
2023/03/24 00:29:04;;;;;;;41.85;11.00;;;;;;;13.39;84.49;98991.72;6150825;23;20033;-83
2023/03/24 00:31:32;;;;;;;35.28;11.32;;;;;;;13.36;84.51;98987.56;6125752;23;20468;-83
2023/03/24 00:34:01;;;;;;;40.72;11.90;;;;;;;13.38;84.43;98987.38;6149621;23;20021;-84
2023/03/24 00:36:28;;;;;;;28.73;10.05;;;;;;;13.34;84.65;98981.56;6148809;23;20073;-84
2023/03/24 00:38:55;;;;;;;20.55;7.75;;;;;;;13.33;84.55;98971.06;6101450;23;20017;-84
2023/03/24 00:41:23;;;;;;;15.00;4.88;;;;;;;13.34;84.16;98970.09;6101136;23;20031;-84
2023/03/24 00:43:54;;;;;;;14.68;5.28;;;;;;;13.31;84.04;98949.09;6101141;23;20515;-84
2023/03/24 00:46:27;;;;;;;11.20;4.95;;;;;;;13.32;84.35;98961.41;6175810;23;20017;-84
2023/03/24 00:49:04;;;;;;;15.32;5.53;;;;;;;13.21;84.33;98952.78;6126895;23;20029;-84
2023/03/24 00:51:34;;;;;;;14.40;5.85;;;;;;;13.30;83.96;98942.91;6100697;23;20024;-84
2023/03/24 00:54:01;;;;;;;17.38;7.55;;;;;;;13.36;83.74;98946.75;6174305;23;20389;-84
2023/03/24 00:56:32;;;;;;;19.27;6.43;;;;;;;13.33;83.19;98939.06;6150645;23;20497;-84
2023/03/24 00:59:01;;;;;;;14.60;5.75;;;;;;;13.28;83.52;98933.44;6101906;23;20025;-84
2023/03/24 01:01:35;;;;;;;17.98;6.95;;;;;;;13.24;83.80;98931.09;6173107;23;20033;-83
2023/03/24 01:04:04;;;;;;;23.15;8.05;;;;;;;13.23;83.63;98926.78;6148359;23;20072;-84
2023/03/24 01:06:32;;;;;;;25.75;9.13;;;;;;;13.20;83.49;98924.47;6126002;23;20166;-84
2023/03/24 01:09:01;;;;;;;17.45;6.68;;;;;;;13.18;83.10;98921.16;6124628;23;20453;-84
2023/03/24 01:11:34;;;;;;;16.80;5.40;;;;;;;13.07;83.60;98913.53;6101143;23;20048;-84
2023/03/24 01:14:01;;;;;;;23.20;6.78;;;;;;;13.08;84.06;98917.00;6148955;23;20021;-84
2023/03/24 01:16:28;;;;;;;14.05;6.00;;;;;;;13.10;83.93;98917.69;6149446;23;20352;-84
2023/03/24 01:18:55;;;;;;;12.85;8.30;;;;;;;13.10;84.27;98912.34;6125692;23;20088;-84
2023/03/24 01:21:24;;;;;;;13.10;7.80;;;;;;;13.11;84.44;98904.19;6125459;23;20025;-84
2023/03/24 01:23:51;;;;;;;9.18;5.97;;;;;;;13.13;84.24;98904.84;6125342;23;20017;-84
2023/03/24 01:26:18;;;;;;;16.17;5.72;;;;;;;13.08;84.28;98914.34;6125733;23;20025;-84
2023/03/24 01:28:45;;;;;;;13.25;5.28;;;;;;;13.08;84.26;98903.69;6149173;23;20465;-84
2023/03/24 01:31:12;;;;;;;16.17;5.97;;;;;;;13.07;84.62;98902.88;6148823;23;20020;-83
2023/03/24 01:33:39;;;;;;;15.00;6.63;;;;;;;13.07;84.32;98900.19;6150090;23;20024;-84
2023/03/24 01:36:06;;;;;;;14.63;6.22;;;;;;;13.09;84.27;98892.88;6148770;23;20096;-84
2023/03/24 01:38:34;;;;;;;14.63;6.38;;;;;;;13.12;83.94;98887.19;6174280;23;20021;-84
2023/03/24 01:41:01;;;;;;;14.35;6.07;;;;;;;13.10;83.76;98881.22;6149463;23;20425;-84
2023/03/24 01:43:30;;;;;;;18.23;7.25;;;;;;;13.10;84.13;98891.03;6173733;23;20025;-84
2023/03/24 01:46:15;;;;;;;20.20;6.65;;;;;;;12.96;84.50;98887.28;6148413;23;20031;-83
2023/03/24 01:48:48;;;;;;;17.55;7.60;;;;;;;13.02;84.31;98886.56;6143654;23;20408;-84
2023/03/24 01:51:34;;;;;;;17.67;7.20;;;;;;;13.04;83.41;98877.38;6124980;23;20512;-84
2023/03/24 01:54:05;;;;;;;12.88;6.05;;;;;;;13.17;82.92;98876.00;6124382;23;20123;-84
2023/03/24 01:56:35;;;;;;;10.07;4.93;;;;;;;13.19;82.44;98864.16;6123434;23;20511;-84
2023/03/24 01:59:07;;;;;;;16.23;5.70;;;;;;;13.14;82.27;98871.03;6099854;23;20056;-84
2023/03/24 02:02:02;;;;;;;10.07;5.05;;;;;;;13.11;83.08;98866.88;6124486;23;20025;-83
2023/03/24 02:04:42;;;;;;;8.95;4.93;;;;;;;13.09;83.09;98865.38;6080487;23;20076;-83
2023/03/24 02:07:28;;;;;;;12.57;5.40;;;;;;;13.06;83.42;98863.06;6122918;23;20044;-83
2023/03/24 02:09:55;;;;;;;13.00;5.15;;;;;;;13.17;82.88;98855.50;6077799;23;20055;-83
2023/03/24 02:12:23;;;;;;;9.57;4.45;;;;;;;13.23;82.58;98857.47;6172894;23;20067;-84
2023/03/24 02:14:50;;;;;;;7.25;4.18;;;;;;;13.28;81.85;98858.78;6123887;23;20072;-84
2023/03/24 02:17:25;;;;;;;6.85;4.10;;;;;;;13.33;81.52;98859.09;6125132;23;20017;-83
2023/03/24 02:19:58;;;;;;;6.43;3.75;;;;;;;13.28;80.87;98850.78;6146971;23;20020;-84
2023/03/24 02:22:53;;;;;;;9.85;4.82;;;;;;;13.23;81.22;98840.66;6124793;23;20461;-84
2023/03/24 02:25:50;;;;;;;8.05;4.05;;;;;;;13.11;83.20;98848.22;6057526;23;20028;-84
2023/03/24 02:28:32;;;;;;;9.07;4.63;;;;;;;13.08;83.47;98845.91;6105328;23;20021;-83
2023/03/24 02:31:11;;;;;;;14.95;4.88;;;;;;;13.09;83.61;98844.06;6123848;23;20017;-83
2023/03/24 02:34:00;;;;;;;7.63;4.57;;;;;;;13.11;83.83;98840.22;6079828;23;20017;-83
2023/03/24 02:36:39;;;;;;;11.85;5.53;;;;;;;13.02;84.78;98858.06;6151505;23;20442;-84
2023/03/24 02:39:21;;;;;;;12.13;6.07;;;;;;;12.92;85.62;98853.97;6101149;23;20088;-83
2023/03/24 02:41:59;;;;;;;10.68;6.45;;;;;;;12.99;85.53;98846.94;6126860;23;20021;-84
2023/03/24 02:44:40;;;;;;;13.68;6.30;;;;;;;13.01;85.11;98848.44;6100926;23;20051;-83
2023/03/24 02:47:17;;;;;;;13.43;7.00;;;;;;;12.93;85.99;98858.31;6101144;23;20017;-84
2023/03/24 02:50:18;;;;;;;13.30;6.75;;;;;;;12.86;86.40;98860.00;6063780;23;20032;-83
2023/03/24 02:52:49;;;;;;;13.75;7.65;;;;;;;12.93;85.82;98845.00;6036213;23;20025;-83
2023/03/24 02:55:20;;;;;;;16.17;7.72;;;;;;;12.96;85.45;98839.31;6124584;23;20017;-83
2023/03/24 02:58:03;;;;;;;11.50;7.13;;;;;;;12.88;86.03;98845.50;6150113;23;20021;-84
2023/03/24 03:00:46;;;;;;;12.65;7.30;;;;;;;12.98;84.96;98837.31;6085446;23;20344;-84
2023/03/24 03:03:38;;;;;;;14.02;7.05;;;;;;;12.95;85.93;98829.63;6045506;23;20385;-84
2023/03/24 03:06:16;;;;;;;10.65;6.28;;;;;;;12.97;85.90;98833.78;6151343;23;20029;-83
2023/03/24 03:08:46;;;;;;;13.38;6.18;;;;;;;12.97;86.29;98830.31;6149750;23;20017;-84
2023/03/24 03:11:14;;;;;;;17.40;6.97;;;;;;;12.99;86.36;98833.63;6149917;23;20017;-84
2023/03/24 03:13:51;;;;;;;17.20;9.23;;;;;;;12.97;86.77;98830.31;6149226;23;20433;-83
2023/03/24 03:16:24;;;;;;;21.13;9.75;;;;;;;12.93;87.27;98818.34;6099211;23;20032;-85
2023/03/24 03:18:55;;;;;;;18.00;9.18;;;;;;;12.88;87.71;98815.38;6101477;23;20308;-84
2023/03/24 03:21:25;;;;;;;12.20;7.25;;;;;;;12.92;87.38;98817.50;6125665;23;20020;-84
2023/03/24 03:24:01;;;;;;;12.63;5.80;;;;;;;12.88;88.04;98812.72;6149603;23;20021;-84
2023/03/24 03:26:31;;;;;;;11.60;6.13;;;;;;;12.93;87.38;98821.84;6125411;23;20111;-84
2023/03/24 03:29:04;;;;;;;11.27;6.10;;;;;;;12.90;87.92;98808.88;6076639;23;20028;-84
2023/03/24 03:31:40;;;;;;;14.20;6.85;;;;;;;12.84;88.27;98817.56;6149271;23;20072;-84
2023/03/24 03:34:33;;;;;;;13.52;6.68;;;;;;;12.82;88.46;98803.56;6125629;23;20025;-83
2023/03/24 03:37:04;;;;;;;12.27;6.10;;;;;;;12.75;89.15;98807.97;6084851;23;20104;-83
2023/03/24 03:39:34;;;;;;;16.45;7.35;;;;;;;12.85;88.21;98807.72;6069529;23;20049;-84
2023/03/24 03:42:05;;;;;;;14.65;7.28;;;;;;;12.81;88.33;98805.41;6047741;23;20021;-84
2023/03/24 03:44:32;;;;;;;13.70;7.05;;;;;;;12.87;88.05;98803.88;6142419;23;20068;-84
2023/03/24 03:46:59;;;;;;;11.73;6.63;;;;;;;12.85;88.11;98797.91;6094431;23;20021;-84
2023/03/24 03:49:37;;;;;;;12.45;6.82;;;;;;;12.82;88.12;98801.75;6095041;23;20399;-83
2023/03/24 03:52:04;;;;;;;14.95;7.22;;;;;;;12.81;88.02;98810.75;6118244;23;20025;-84
2023/03/24 03:54:32;;;;;;;12.93;8.45;;;;;;;12.81;87.45;98818.72;6118361;23;20112;-84
2023/03/24 03:56:59;;;;;;;12.23;6.97;;;;;;;12.84;87.24;98828.22;6069705;23;20052;-83
2023/03/24 03:59:34;;;;;;;13.10;7.10;;;;;;;12.76;88.45;98815.75;6093832;23;20026;-83
2023/03/24 04:02:27;;;;;;;18.10;7.30;;;;;;;12.69;88.26;98817.47;6069454;23;20350;-83
2023/03/24 04:05:14;;;;;;;16.23;7.95;;;;;;;12.73;87.81;98816.13;6067659;23;20021;-83
2023/03/24 04:08:14;;;;;;;15.15;8.15;;;;;;;12.63;88.16;98826.16;6067642;23;20096;-84
2023/03/24 04:11:25;;;;;;;20.20;8.05;;;;;;;12.60;88.50;98823.84;6084840;23;20097;-84
2023/03/24 04:14:18;;;;;;;15.18;8.38;;;;;;;12.67;88.07;98830.16;6042001;23;20041;-83
2023/03/24 04:17:13;;;;;;;15.35;8.52;;;;;;;12.74;87.73;98843.56;6054840;23;20402;-84
2023/03/24 04:19:54;;;;;;;;;;;;;;;12.48;89.86;98862.50;6149635;23;20032;-84
2023/03/24 04:22:52;;;;;;;15.68;8.10;;;;;;;12.54;89.37;98865.31;6102241;23;20057;-83
2023/03/24 04:25:45;;;;;;;18.52;8.55;;;;;;;12.42;90.17;98866.69;6081497;23;20484;-84
2023/03/24 04:28:13;;;;;;;15.13;7.88;;;;;;;12.53;88.97;98858.31;6080686;23;20027;-84
2023/03/24 04:30:43;;;;;;;16.23;7.78;;;;;;;12.58;89.35;98861.28;6173942;23;20020;-85
2023/03/24 04:33:24;;;;;;;20.35;9.35;;;;;;;12.60;89.81;98869.94;6150163;23;20099;-83
2023/03/24 04:35:57;;;;;;;29.70;18.15;;;;;;;12.70;89.18;98882.25;6124181;23;20021;-84
2023/03/24 04:38:37;;;;;;;21.98;13.93;;;;;;;12.75;88.93;98871.91;6099987;23;20021;-84
2023/03/24 04:41:26;;;;;;;16.08;11.15;;;;;;;12.79;88.61;98867.88;6065802;23;20032;-84
2023/03/24 04:44:04;;;;;;;16.52;8.90;;;;;;;12.85;88.32;98875.19;6126263;23;20029;-84
2023/03/24 04:46:40;;;;;;;17.65;9.50;;;;;;;12.86;88.25;98876.00;6124937;23;20088;-85
2023/03/24 04:49:13;;;;;;;19.05;9.50;;;;;;;12.83;88.69;98893.16;6150548;23;20140;-84
2023/03/24 04:51:42;;;;;;;19.58;9.65;;;;;;;12.80;89.50;98905.00;6100773;23;20083;-83
2023/03/24 04:54:18;;;;;;;20.48;8.48;;;;;;;12.77;89.93;98915.16;6151242;23;20079;-83
2023/03/24 04:56:54;;;;;;;19.35;8.93;;;;;;;12.76;90.01;98919.66;6100457;23;20025;-83
2023/03/24 04:59:41;;;;;;;16.60;8.45;;;;;;;12.73;90.39;98925.34;6081261;23;20408;-83
2023/03/24 05:02:09;;;;;;;17.08;7.88;;;;;;;12.73;90.72;98921.84;6125447;23;20024;-82
2023/03/24 05:04:39;;;;;;;16.05;8.63;;;;;;;12.73;91.17;98929.84;6150732;23;20021;-83
2023/03/24 05:07:20;;;;;;;16.80;8.30;;;;;;;12.72;91.60;98926.34;6172721;23;20025;-83
2023/03/24 05:09:49;;;;;;;15.43;8.32;;;;;;;12.71;91.80;98927.31;6172815;23;20043;-83
2023/03/24 05:12:16;;;;;;;24.65;12.30;;;;;;;12.74;91.87;98918.16;6149407;23;20039;-83
2023/03/24 05:15:02;;;;;;;18.27;9.93;;;;;;;12.74;92.22;98916.31;6175607;23;20029;-83
2023/03/24 05:17:30;;;;;;;16.13;8.18;;;;;;;12.75;92.79;98931.31;6149216;23;20025;-84
2023/03/24 05:19:57;;;;;;;12.30;8.23;;;;;;;12.76;92.94;98922.31;6123583;23;20048;-83
2023/03/24 05:22:24;;;;;;;14.20;7.15;;;;;;;12.79;92.94;98934.47;6148540;23;20365;-83
2023/03/24 05:24:51;;;;;;;9.60;5.50;;;;;;;12.82;93.10;98942.09;6125350;23;20017;-82
2023/03/24 05:27:17;;;;;;;9.70;5.45;;;;;;;12.84;93.11;98948.09;6173615;23;20389;-81
2023/03/24 05:29:44;;;;;;;15.80;5.45;;;;;;;12.85;93.54;98944.44;6150080;23;20028;-82
2023/03/24 05:32:18;;;;;;;14.88;6.28;;;;;;;12.84;93.88;98937.44;6125795;23;20111;-81
2023/03/24 05:34:45;;;;;;;10.85;6.25;;;;;;;12.84;93.82;98925.97;6172874;23;20532;-81
2023/03/24 05:37:15;;;;;;;10.10;5.22;;;;;;;12.88;93.83;98929.94;6125090;23;20048;-82
2023/03/24 05:39:46;;;;;;;;;;;;;;;12.68;96.61;98934.84;6077617;23;20086;-82
2023/03/24 05:42:28;;;;;;;12.18;5.32;;;;;;;12.82;94.45;98940.28;6102244;23;19920;-81
2023/03/24 05:44:56;;;;;;;11.15;5.90;;;;;;;12.85;94.46;98948.91;6149082;23;20301;-81
2023/03/24 05:47:26;;;;;;;11.90;6.65;;;;;;;12.89;94.18;98943.09;6173617;23;20021;-81
2023/03/24 05:49:54;;;;;;;12.50;6.47;;;;;;;12.94;94.03;98956.72;6124881;23;20048;-81
2023/03/24 05:52:21;;;;;;;13.40;6.30;;;;;;;12.92;94.23;98955.22;6148781;23;20028;-81
2023/03/24 05:54:57;;;;;;;11.38;6.78;;;;;;;12.95;94.11;98960.22;6148912;23;20438;-81
2023/03/24 05:57:29;;;;;;;13.23;6.72;;;;;;;12.93;94.38;98948.91;6149499;23;20028;-82
2023/03/24 06:00:19;;;;;;;13.35;7.63;;;;;;;12.94;94.36;98937.25;6076691;23;20028;-81
2023/03/24 06:03:07;;;;;;;14.82;7.40;;;;;;;12.99;94.09;98937.56;6062028;23;20020;-81
2023/03/24 06:05:38;;;;;;;12.55;7.60;;;;;;;13.01;93.87;98931.03;6175000;23;20021;-81
2023/03/24 06:08:04;;;;;;;18.83;7.93;;;;;;;13.03;94.14;98939.69;6149091;23;20023;-81
2023/03/24 06:10:35;;;;;;;16.48;8.00;;;;;;;13.06;94.31;98929.72;6150489;23;20024;-81
2023/03/24 06:13:02;;;;;;;16.45;8.40;;;;;;;13.06;94.60;98937.69;6150527;23;20051;-81
2023/03/24 06:15:31;;;;;;;19.60;9.60;;;;;;;13.09;94.55;98932.84;6150140;23;20040;-80
2023/03/24 06:18:14;;;;;;;20.75;11.10;;;;;;;13.09;94.32;98937.34;6148360;23;20223;-80
2023/03/24 06:20:42;;;;;;;20.80;10.52;;;;;;;13.12;94.40;98931.66;6151417;23;20021;-80
2023/03/24 06:23:26;;;;;;;22.38;9.75;;;;;;;13.13;94.38;98920.00;6128211;23;20096;-80
2023/03/24 06:26:07;;;;;;;19.23;9.02;;;;;;;13.13;94.74;98922.69;6150950;23;20386;-81
2023/03/24 06:28:38;;;;;;;18.75;8.68;;;;;;;13.19;94.13;98919.31;6125704;23;20021;-80
2023/03/24 06:31:17;;;;;;;21.58;9.90;;;;;;;13.19;94.13;98919.31;6151980;23;20049;-80
2023/03/24 06:33:45;;;;;;;20.52;9.00;;;;;;;13.21;94.22;98918.13;6150232;23;20029;-81
2023/03/24 06:36:12;;;;;;;18.25;9.45;;;;;;;13.23;93.92;98904.63;6126756;23;20017;-80
2023/03/24 06:38:41;;;;;;;20.50;10.00;;;;;;;13.24;94.04;98911.63;6150750;23;20097;-80
2023/03/24 06:41:09;;;;;;;20.05;10.30;;;;;;;13.25;94.07;98922.09;6150161;23;20021;-80
2023/03/24 06:43:36;;;;;;;19.98;10.45;;;;;;;13.28;93.87;98922.78;6149070;23;20039;-80
2023/03/24 06:46:03;;;;;;;19.90;10.27;;;;;;;13.30;93.95;98931.44;6151004;23;20025;-80
2023/03/24 06:48:32;;;;;;;26.48;10.20;;;;;;;13.31;93.87;98931.28;6150229;23;20366;-80
2023/03/24 06:51:04;;;;;;;19.60;9.95;;;;;;;13.30;93.98;98929.59;6177223;23;20052;-80
2023/03/24 06:53:30;;;;;;;23.10;10.68;;;;;;;13.32;94.08;98940.91;6150577;23;20087;-80
2023/03/24 06:55:57;;;;;;;20.08;10.85;;;;;;;13.33;93.98;98939.06;6174983;23;20032;-81
2023/03/24 06:58:27;;;;;;;23.35;10.70;;;;;;;13.35;93.99;98947.72;6175007;23;20103;-80
2023/03/24 07:01:02;;;;;;;17.70;9.80;;;;;;;13.35;93.93;98950.41;6127960;23;20032;-80
2023/03/24 07:03:35;;;;;;;25.77;11.10;;;;;;;13.33;94.09;98939.94;6151439;23;20441;-80
2023/03/24 07:06:21;;;;;;;18.83;9.30;;;;;;;13.34;94.44;98936.25;6125936;23;20467;-80
2023/03/24 07:08:52;;;;;;;16.98;10.73;;;;;;;13.36;94.21;98952.91;6174050;23;20052;-80
2023/03/24 07:11:22;;;;;;;22.38;10.05;;;;;;;13.36;94.00;98944.09;6125949;23;20441;-80
2023/03/24 07:13:52;;;;;;;21.13;10.32;;;;;;;13.38;94.06;98948.22;6150808;23;20021;-80
2023/03/24 07:16:19;;;;;;;20.50;10.25;;;;;;;13.38;94.00;98942.91;6150232;23;20470;-80
2023/03/24 07:18:52;;;;;;;23.20;10.07;;;;;;;13.39;94.07;98949.88;6151203;23;20025;-81
2023/03/24 07:21:19;;;;;;;17.92;9.40;;;;;;;13.40;94.05;98958.72;6174300;23;20080;-80
2023/03/24 07:23:48;;;;;;;20.30;10.38;;;;;;;13.40;94.15;98958.72;6150671;23;20021;-80
2023/03/24 07:26:18;;;;;;;18.42;9.10;;;;;;;13.41;94.05;98958.53;6150711;23;20070;-80
2023/03/24 07:28:45;;;;;;;20.52;9.80;;;;;;;13.41;94.41;98955.88;6174879;23;20071;-81
2023/03/24 07:31:19;;;;;;;19.95;10.70;;;;;;;13.40;94.74;98962.19;6128452;23;20045;-81
2023/03/24 07:33:49;;;;;;;20.10;11.02;;;;;;;13.41;94.62;98963.06;6135031;23;20079;-80
2023/03/24 07:36:16;;;;;;;25.80;11.77;;;;;;;13.42;94.69;98962.84;6098745;23;20029;-80
2023/03/24 07:38:43;;;;;;;25.15;12.35;;;;;;;13.42;94.75;98965.53;6149472;23;20029;-79
2023/03/24 07:41:16;;;;;;;24.10;13.90;;;;;;;13.40;94.81;98972.03;6152992;23;20025;-80
2023/03/24 07:43:49;;;;;;;36.97;15.88;;;;;;;13.41;94.89;98977.22;6130422;23;20025;-80
2023/03/24 07:46:31;;;;;;;29.55;13.95;;;;;;;13.42;94.77;98975.38;6173815;23;20021;-81
2023/03/24 07:48:58;;;;;;;29.30;13.70;;;;;;;13.43;94.79;98977.00;6174484;23;20024;-79
2023/03/24 07:51:38;;;;;;;26.55;14.10;;;;;;;13.44;94.66;98974.19;6172674;23;20457;-80
2023/03/24 07:54:26;;;;;;;36.95;13.38;;;;;;;13.44;94.61;98976.03;6170979;23;20021;-80
2023/03/24 07:56:55;;;;;;;20.30;10.45;;;;;;;13.46;94.70;98974.03;6149612;23;20112;-80
2023/03/24 07:59:22;;;;;;;25.23;10.27;;;;;;;13.48;94.65;98969.31;6150602;23;20025;-81
2023/03/24 08:02:03;;;;;;;19.02;9.70;;;;;;;13.50;94.43;98969.16;6173350;23;20059;-79
2023/03/24 08:04:38;;;;;;;20.20;9.73;;;;;;;13.53;94.22;98964.28;6126874;23;20025;-80
2023/03/24 08:07:18;;;;;;;18.70;8.05;;;;;;;13.55;94.43;98946.28;6148598;23;20476;-80
2023/03/24 08:09:44;;;;;;;16.98;7.95;;;;;;;13.61;94.12;98940.25;6173583;23;20338;-80
2023/03/24 08:12:11;;;;;;;12.05;6.65;;;;;;;13.65;94.44;98932.72;6149514;23;20414;-81
2023/03/24 08:14:46;;;;;;;14.25;7.20;;;;;;;13.68;94.22;98938.50;6103413;23;20031;-81
2023/03/24 08:17:13;;;;;;;12.02;7.00;;;;;;;13.70;94.31;98932.19;6172503;23;20434;-81
2023/03/24 08:19:39;;;;;;;12.00;6.38;;;;;;;13.71;94.02;98945.31;6124265;23;20025;-83
2023/03/24 08:22:24;;;;;;;14.90;7.13;;;;;;;13.71;94.01;98955.19;6084083;23;20037;-81
2023/03/24 08:24:51;;;;;;;11.82;6.55;;;;;;;13.72;93.87;98957.69;6149657;23;20714;-81
2023/03/24 08:27:17;;;;;;;15.73;8.13;;;;;;;13.72;93.62;98962.19;6149563;23;20101;-81
2023/03/24 08:29:44;;;;;;;20.20;7.93;;;;;;;13.71;93.95;98955.19;6174103;23;20052;-80
2023/03/24 08:32:11;;;;;;;13.27;6.78;;;;;;;13.72;93.99;98946.19;6148988;23;20084;-80
2023/03/24 08:34:38;;;;;;;14.93;7.13;;;;;;;13.72;93.81;98949.69;6149587;23;20020;-80
2023/03/24 08:37:04;;;;;;;12.88;7.05;;;;;;;13.72;94.54;98944.34;6124361;23;20020;-81
2023/03/24 08:39:34;;;;;;;15.55;6.80;;;;;;;13.75;94.24;98946.66;6176248;23;20080;-80
2023/03/24 08:42:01;;;;;;;13.35;6.82;;;;;;;13.77;94.04;98954.50;6150409;23;20091;-81
2023/03/24 08:44:28;;;;;;;13.77;6.88;;;;;;;13.78;94.04;98964.13;6174496;23;20043;-81
2023/03/24 08:46:59;;;;;;;14.57;7.00;;;;;;;13.79;94.02;98963.13;6174311;23;20056;-81
2023/03/24 08:49:26;;;;;;;101.40;17.88;;;;;;;13.78;94.18;98964.97;6176052;23;20044;-81
2023/03/24 08:51:53;;;;;;;58.30;11.40;;;;;;;13.79;94.01;98950.63;6148178;23;20021;-81
2023/03/24 08:54:22;;;;;;;37.42;10.32;;;;;;;13.78;93.91;98956.97;6124937;23;20023;-81
2023/03/24 08:56:49;;;;;;;24.25;9.25;;;;;;;13.76;93.87;98969.63;6174040;23;20039;-80
2023/03/24 08:59:17;;;;;;;18.30;8.02;;;;;;;13.77;94.07;98959.81;6174410;23;20021;-80
2023/03/24 09:01:44;;;;;;;16.13;7.68;;;;;;;13.77;93.93;98954.50;6149213;23;20337;-80
2023/03/24 09:04:11;;;;;;;15.45;7.40;;;;;;;13.77;93.69;98967.81;6176081;23;20352;-80
2023/03/24 09:06:38;;;;;;;12.20;7.00;;;;;;;13.75;93.81;98985.84;6173089;23;20437;-80
2023/03/24 09:09:06;;;;;;;10.57;5.65;;;;;;;13.76;93.65;98971.47;6176326;23;20033;-81
2023/03/24 09:11:33;;;;;;;12.23;5.70;;;;;;;13.76;93.65;98964.31;6173801;23;20464;-80
2023/03/24 09:14:02;;;;;;;10.30;5.10;;;;;;;13.76;93.48;98972.31;6173805;23;20036;-81
2023/03/24 09:16:29;;;;;;;12.90;5.78;;;;;;;13.77;93.35;98974.00;6174235;23;20037;-81
2023/03/24 09:18:56;;;;;;;59.50;14.50;;;;;;;13.77;93.58;98967.81;6149089;23;20025;-81
2023/03/24 09:21:23;;;;;;;42.35;11.02;;;;;;;13.77;93.56;98960.66;6174564;23;20096;-81
2023/03/24 09:23:50;;;;;;;23.60;7.72;;;;;;;13.79;93.39;98963.13;6174161;23;20456;-81
2023/03/24 09:26:16;;;;;;;8.27;4.88;;;;;;;13.80;93.54;98965.63;6173703;23;20021;-81
2023/03/24 09:28:43;;;;;;;8.00;4.57;;;;;;;13.82;93.28;98958.28;6176038;23;20021;-81
2023/03/24 09:31:10;;;;;;;8.38;4.75;;;;;;;13.84;93.20;98968.75;6148376;23;20075;-81
2023/03/24 09:33:37;;;;;;;5.97;4.13;;;;;;;13.86;93.12;98969.41;6149176;23;20029;-81
2023/03/24 09:36:04;;;;;;;8.23;4.22;;;;;;;13.86;92.99;98959.56;6173911;23;20476;-80
2023/03/24 09:38:33;;;;;;;8.38;4.68;;;;;;;13.86;93.04;98958.75;6173472;23;20049;-82
2023/03/24 09:41:01;;;;;;;8.10;3.75;;;;;;;13.87;92.92;98965.75;6173612;23;20033;-82
2023/03/24 09:43:44;;;;;;;9.02;4.50;;;;;;;13.81;93.03;98958.44;6174556;23;20083;-81
2023/03/24 09:46:14;;;;;;;8.32;4.80;;;;;;;13.86;92.86;98954.22;6149434;23;20389;-81
2023/03/24 09:48:47;;;;;;;9.68;4.70;;;;;;;13.88;92.64;98959.41;6151122;23;20025;-81
2023/03/24 09:51:40;;;;;;;8.25;4.30;;;;;;;13.89;92.53;98945.03;6151452;23;20020;-81
2023/03/24 09:54:06;;;;;;;6.63;3.90;;;;;;;13.91;92.25;98940.34;6111217;23;20441;-82
2023/03/24 09:56:35;;;;;;;6.05;3.60;;;;;;;13.93;92.29;98937.50;6175352;23;20044;-82
2023/03/24 09:59:05;;;;;;;6.72;3.58;;;;;;;13.95;92.25;98948.84;6150897;23;20084;-82
2023/03/24 10:01:35;;;;;;;9.57;4.50;;;;;;;13.95;92.38;98955.00;6177043;23;20029;-82
2023/03/24 10:04:03;;;;;;;9.43;4.50;;;;;;;13.97;92.34;98949.47;6174407;23;20039;-82
2023/03/24 10:06:38;;;;;;;12.70;4.80;;;;;;;13.90;91.78;98952.88;6175411;23;20071;-81
2023/03/24 10:09:30;;;;;;;7.28;3.78;;;;;;;13.86;91.81;98962.22;6103250;23;20017;-82
2023/03/24 10:12:15;;;;;;;7.22;4.00;;;;;;;13.92;92.01;98963.38;6084636;23;20017;-81
2023/03/24 10:14:54;;;;;;;8.75;4.13;;;;;;;13.84;93.11;98972.28;6152249;23;20021;-82
2023/03/24 10:17:45;;;;;;;9.07;4.80;;;;;;;13.79;93.52;98963.97;6126459;23;20468;-81
2023/03/24 10:20:33;;;;;;;9.40;4.97;;;;;;;13.85;93.24;98973.94;6106475;23;20044;-81
2023/03/24 10:23:31;;;;;;;9.88;4.60;;;;;;;13.79;93.86;98977.31;6154386;23;20032;-81
2023/03/24 10:26:31;;;;;;;9.60;4.20;;;;;;;13.75;94.02;98985.84;6127926;23;20072;-81
2023/03/24 10:29:03;;;;;;;20.08;6.43;;;;;;;13.83;93.51;98981.28;6110332;23;20096;-81
2023/03/24 10:31:32;;;;;;;9.45;4.18;;;;;;;13.84;93.47;98976.75;6150141;23;20033;-79
2023/03/24 10:33:59;;;;;;;10.30;4.90;;;;;;;13.85;93.88;98984.59;6175328;23;20021;-79
2023/03/24 10:36:26;;;;;;;11.65;5.00;;;;;;;13.88;93.85;98991.41;6176927;23;20033;-80
2023/03/24 10:38:53;;;;;;;9.85;4.60;;;;;;;13.83;94.31;98991.94;6150357;23;20345;-79
2023/03/24 10:41:22;;;;;;;8.35;5.13;;;;;;;13.82;94.51;98997.47;6175087;23;20029;-79
2023/03/24 10:43:51;;;;;;;17.55;7.05;;;;;;;13.83;94.72;99001.78;6150637;23;20052;-80
2023/03/24 10:46:21;;;;;;;18.27;5.63;;;;;;;13.82;95.12;98998.31;6177209;23;20028;-80
2023/03/24 10:48:50;;;;;;;11.02;4.88;;;;;;;13.85;94.91;99002.44;6174363;23;20037;-80
2023/03/24 10:51:18;;;;;;;11.93;4.40;;;;;;;13.84;95.20;98998.97;6151202;23;20027;-79
2023/03/24 10:53:49;;;;;;;10.48;4.82;;;;;;;13.85;95.22;99013.94;6176397;23;20062;-79
2023/03/24 10:56:44;;;;;;;9.60;4.43;;;;;;;13.74;96.58;99010.84;6174847;23;20037;-79
2023/03/24 10:59:28;;;;;;;9.73;5.15;;;;;;;13.80;95.51;99002.97;6105191;23;20449;-79
2023/03/24 11:06:08;;;;;;;10.68;5.75;;;;;;;13.83;95.24;99009.81;5987312;23;20349;-81
2023/03/24 11:08:39;;;;;;;12.27;6.57;;;;;;;13.86;95.53;99010.25;6042237;23;20022;-80
2023/03/24 11:11:14;;;;;;;11.45;5.75;;;;;;;13.85;95.56;99018.47;6043587;23;20030;-80
2023/03/24 11:13:41;;;;;;;13.07;6.40;;;;;;;13.89;95.67;99012.59;6042008;23;20025;-80
2023/03/24 11:16:13;;;;;;;11.45;6.28;;;;;;;13.87;95.98;99037.81;6066187;23;20037;-81
2023/03/24 11:19:04;;;;;;;18.90;6.43;;;;;;;13.74;98.20;99025.03;6067184;23;20379;-81
2023/03/24 11:21:35;;;;;;;11.38;6.30;;;;;;;13.71;98.21;99027.22;6018815;23;20100;-80
2023/03/24 11:24:09;;;;;;;10.38;5.60;;;;;;;13.76;95.79;99036.34;6089388;23;20030;-80
2023/03/24 11:26:37;;;;;;;15.60;6.88;;;;;;;13.79;96.27;99045.84;6066379;23;20025;-79
2023/03/24 11:29:09;;;;;;;18.83;6.53;;;;;;;13.72;97.72;99023.56;6102430;23;20461;-80
2023/03/24 11:31:38;;;;;;;9.50;5.18;;;;;;;13.74;96.21;99016.19;6149787;23;20445;-80
2023/03/24 11:34:24;;;;;;;11.43;5.70;;;;;;;13.73;96.78;99027.88;6126215;23;20020;-80
2023/03/24 11:36:59;;;;;;;12.38;6.28;;;;;;;13.65;98.93;99013.56;6099883;23;20040;-81
2023/03/24 11:39:27;;;;;;;10.07;5.90;;;;;;;13.75;98.64;99021.34;6124758;23;20441;-80
2023/03/24 11:42:09;;;;;;;11.10;6.47;;;;;;;13.84;97.72;99022.13;6149046;23;20104;-81
2023/03/24 11:44:36;;;;;;;14.25;6.25;;;;;;;14.01;97.46;99013.00;6099218;23;20099;-79
2023/03/24 11:47:13;;;;;;;18.13;6.85;;;;;;;14.06;97.64;99013.28;6175648;23;20322;-79
2023/03/24 11:50:09;;;;;;;12.05;6.65;;;;;;;14.12;97.61;99006.44;6149794;23;20025;-79
2023/03/24 11:52:53;;;;;;;19.27;8.60;;;;;;;14.16;100.00;99007.72;6104651;23;20103;-79
2023/03/24 11:55:23;;;;;;;14.02;8.73;;;;;;;14.24;99.17;99001.47;6125096;23;20033;-80
2023/03/24 11:58:15;;;;;;;16.05;7.97;;;;;;;14.22;99.45;98983.00;6173929;23;20083;-79
2023/03/24 12:01:08;;;;;;;13.75;7.22;;;;;;;14.28;98.58;98989.44;6151417;23;20457;-79